Time;durP1;ratioP1;P1;durP2;ratioP2;P2;SDS_P1;SDS_P2;PMS_P1;PMS_P2;Temp;Humidity;BMP_temperature;BMP_pressure;BME280_temperature;BME280_humidity;BME280_pressure;Samples;Min_cycle;Max_cycle;Signal;HPM_P1;HPM_P2
2023/12/25 00:01:50;;;;;;;8.40;5.95;;;1.00;99.90;;;;;;5075181;28;20051;-86
2023/12/25 00:04:15;;;;;;;7.50;5.18;;;0.90;99.90;;;;;;5095918;28;20022;-86
2023/12/25 00:06:41;;;;;;;10.60;5.85;;;0.90;99.90;;;;;;5097058;28;20036;-86
2023/12/25 00:09:07;;;;;;;9.13;6.05;;;0.90;99.90;;;;;;5112706;28;20039;-85
2023/12/25 00:11:33;;;;;;;8.82;6.68;;;0.90;99.90;;;;;;5085959;28;20030;-85
2023/12/25 00:13:58;;;;;;;8.30;6.15;;;0.90;99.90;;;;;;5108812;28;20464;-85
2023/12/25 00:16:26;;;;;;;7.38;5.38;;;1.00;99.90;;;;;;5101262;28;20015;-85
2023/12/25 00:18:52;;;;;;;6.75;4.53;;;1.00;99.90;;;;;;5098606;28;20077;-84
2023/12/25 00:21:19;;;;;;;8.98;5.97;;;0.90;99.90;;;;;;5113381;28;20027;-83
2023/12/25 00:23:45;;;;;;;8.63;5.82;;;1.00;99.90;;;;;;5099965;28;20496;-83
2023/12/25 00:26:11;;;;;;;8.73;4.63;;;1.00;99.90;;;;;;5107917;28;20032;-83
2023/12/25 00:28:36;;;;;;;7.97;4.47;;;0.90;99.90;;;;;;5108911;28;20015;-84
2023/12/25 00:31:02;;;;;;;7.57;5.57;;;0.80;99.90;;;;;;5082174;28;20044;-83
2023/12/25 00:33:28;;;;;;;6.50;4.57;;;0.80;99.90;;;;;;5079973;28;20032;-85
2023/12/25 00:35:54;;;;;;;6.18;4.88;;;0.70;99.90;;;;;;5100399;28;20027;-85
2023/12/25 00:38:19;;;;;;;7.70;5.75;;;0.70;99.90;;;;;;5116689;28;20040;-85
2023/12/25 00:40:45;;;;;;;7.82;4.68;;;0.70;99.90;;;;;;5140253;28;20035;-86
2023/12/25 00:43:11;;;;;;;5.63;3.88;;;0.70;99.90;;;;;;5113631;28;20024;-86
2023/12/25 00:45:38;;;;;;;8.25;4.82;;;0.70;99.90;;;;;;5098119;28;20050;-84
2023/12/25 00:48:04;;;;;;;;;;;0.70;99.90;;;;;;5108183;28;20035;-85
2023/12/25 00:50:30;;;;;;;8.07;4.28;;;0.70;99.90;;;;;;5079695;28;19985;-85
2023/12/25 00:52:56;;;;;;;5.95;4.50;;;0.60;99.90;;;;;;5101182;28;20015;-85
2023/12/25 00:55:22;;;;;;;8.98;4.72;;;0.60;99.90;;;;;;5100825;28;20369;-85
2023/12/25 00:57:48;;;;;;;6.82;4.68;;;0.70;99.90;;;;;;5117594;28;20024;-85
2023/12/25 01:00:14;;;;;;;8.77;6.05;;;0.80;99.90;;;;;;5111611;28;20093;-84
2023/12/25 01:02:39;;;;;;;5.80;3.97;;;0.90;99.90;;;;;;5081732;28;20496;-85
2023/12/25 01:05:05;;;;;;;6.50;4.30;;;0.90;99.90;;;;;;5106829;28;20028;-85
2023/12/25 01:07:31;;;;;;;9.77;4.57;;;1.00;99.90;;;;;;5109693;28;20040;-85
2023/12/25 01:09:57;;;;;;;6.55;4.65;;;1.00;99.90;;;;;;5077703;28;20016;-85
2023/12/25 01:12:23;;;;;;;7.65;5.13;;;1.10;99.90;;;;;;5097415;28;20099;-85
2023/12/25 01:14:48;;;;;;;6.82;3.90;;;1.10;99.90;;;;;;5083327;28;20047;-83
2023/12/25 01:17:14;;;;;;;7.45;4.13;;;1.00;99.90;;;;;;5104714;28;20024;-87
2023/12/25 01:19:40;;;;;;;5.15;4.03;;;1.00;99.90;;;;;;5108658;28;20035;-85
2023/12/25 01:22:06;;;;;;;7.28;4.38;;;1.00;99.90;;;;;;5087386;28;20023;-85
2023/12/25 01:24:31;;;;;;;6.55;3.50;;;1.00;99.90;;;;;;5102155;28;20430;-85
2023/12/25 01:26:57;;;;;;;6.00;4.63;;;1.00;99.90;;;;;;5101089;28;20036;-86
2023/12/25 01:29:23;;;;;;;6.10;3.95;;;1.00;99.90;;;;;;5092637;28;20024;-85
2023/12/25 01:31:49;;;;;;;5.22;3.70;;;1.00;99.90;;;;;;5099252;28;20537;-87
2023/12/25 01:34:15;;;;;;;4.93;3.58;;;1.00;99.90;;;;;;5111815;28;20020;-84
2023/12/25 01:36:40;;;;;;;5.25;4.13;;;1.00;99.90;;;;;;5122918;28;20024;-87
2023/12/25 01:39:06;;;;;;;5.45;3.78;;;1.00;99.90;;;;;;5092675;28;20119;-88
2023/12/25 01:41:33;;;;;;;6.38;4.35;;;1.10;99.90;;;;;;5103082;28;20055;-87
2023/12/25 01:43:59;;;;;;;6.15;4.05;;;1.10;99.90;;;;;;5120856;28;20071;-86
2023/12/25 01:46:25;;;;;;;9.27;4.47;;;1.20;99.90;;;;;;5100002;28;20059;-86
2023/12/25 01:48:52;;;;;;;5.35;4.07;;;1.10;99.90;;;;;;5101271;28;20027;-88
2023/12/25 01:51:21;;;;;;;;;;;1.10;99.90;;;;;;5100745;28;20027;-88
2023/12/25 01:53:47;;;;;;;6.78;4.03;;;1.10;99.90;;;;;;5095738;28;19998;-87
2023/12/25 01:56:13;;;;;;;6.47;4.57;;;1.10;99.90;;;;;;5105412;28;20016;-87
2023/12/25 01:58:38;;;;;;;6.90;5.00;;;1.20;99.90;;;;;;5104162;28;20111;-87
2023/12/25 02:01:04;;;;;;;6.03;3.97;;;1.20;99.90;;;;;;5098302;28;20024;-86
2023/12/25 02:03:30;;;;;;;5.55;3.90;;;1.20;99.90;;;;;;5112633;28;20100;-86
2023/12/25 02:05:57;;;;;;;5.68;3.50;;;1.10;99.90;;;;;;5104340;28;20047;-88
2023/12/25 02:08:23;;;;;;;9.33;4.87;;;1.10;99.90;;;;;;5099512;28;20502;-88
2023/12/25 02:10:49;;;;;;;6.68;4.43;;;1.00;99.90;;;;;;5100105;28;20253;-87
2023/12/25 02:13:15;;;;;;;7.07;4.40;;;0.90;99.90;;;;;;5110150;28;20045;-87
2023/12/25 02:15:41;;;;;;;5.47;4.43;;;1.00;99.90;;;;;;5099712;28;20397;-88
2023/12/25 02:18:07;;;;;;;6.05;4.00;;;1.00;99.90;;;;;;5128406;28;20035;-84
2023/12/25 02:20:33;;;;;;;3.53;3.17;;;0.90;99.90;;;;;;5105006;28;20024;-87
2023/12/25 02:23:04;;;;;;;4.20;3.13;;;0.90;99.90;;;;;;5084197;28;20033;-88
2023/12/25 02:25:36;;;;;;;5.57;3.90;;;0.90;99.90;;;;;;5105229;28;20058;-86
2023/12/25 02:28:03;;;;;;;6.20;4.13;;;0.90;99.90;;;;;;5099515;28;20024;-84
2023/12/25 02:30:29;;;;;;;5.10;3.67;;;1.00;99.90;;;;;;5107169;28;20020;-84
2023/12/25 02:32:55;;;;;;;6.45;3.47;;;0.90;99.90;;;;;;5132442;28;20091;-84
2023/12/25 02:35:21;;;;;;;6.93;3.70;;;0.90;99.90;;;;;;5088373;28;20160;-84
2023/12/25 02:37:47;;;;;;;4.20;3.03;;;0.90;99.90;;;;;;5086449;28;20024;-84
2023/12/25 02:40:13;;;;;;;5.78;3.97;;;0.90;99.90;;;;;;5123381;28;20031;-83
2023/12/25 02:42:39;;;;;;;6.15;4.13;;;0.90;99.90;;;;;;5118366;28;20079;-84
2023/12/25 02:45:05;;;;;;;4.38;3.17;;;0.90;99.90;;;;;;5106004;28;20055;-84
2023/12/25 02:47:31;;;;;;;4.47;3.40;;;0.90;99.90;;;;;;5099963;28;20136;-83
2023/12/25 02:49:57;;;;;;;4.93;3.70;;;0.90;99.90;;;;;;5094864;28;20020;-83
2023/12/25 02:52:23;;;;;;;5.20;2.92;;;0.90;99.90;;;;;;5096677;28;20028;-83
2023/12/25 02:54:49;;;;;;;4.53;2.75;;;0.90;99.90;;;;;;5104933;28;20024;-85
2023/12/25 02:57:14;;;;;;;4.97;3.10;;;0.90;99.90;;;;;;5127786;28;20019;-82
2023/12/25 02:59:40;;;;;;;6.45;3.78;;;0.90;99.90;;;;;;5101692;28;20028;-81
2023/12/25 03:02:06;;;;;;;6.45;3.67;;;0.90;99.90;;;;;;5131067;28;20046;-82
2023/12/25 03:04:32;;;;;;;6.40;3.45;;;0.90;99.90;;;;;;5102024;28;20491;-83
2023/12/25 03:07:01;;;;;;;5.28;3.50;;;0.90;99.90;;;;;;5119211;28;20023;-86
2023/12/25 03:09:27;;;;;;;3.75;2.95;;;0.90;99.90;;;;;;5099213;28;20024;-84
2023/12/25 03:11:53;;;;;;;4.35;3.03;;;0.90;99.90;;;;;;5092662;28;20046;-84
2023/12/25 03:14:19;;;;;;;5.15;3.30;;;0.90;99.90;;;;;;5137502;28;20004;-84
2023/12/25 03:16:44;;;;;;;6.38;3.40;;;0.90;99.90;;;;;;5135913;28;20028;-84
2023/12/25 03:19:10;;;;;;;5.45;3.78;;;0.90;99.90;;;;;;5102792;28;20028;-84
2023/12/25 03:21:36;;;;;;;6.15;3.92;;;0.90;99.90;;;;;;5077093;28;20028;-86
2023/12/25 03:24:02;;;;;;;4.85;3.60;;;0.90;99.90;;;;;;5076024;28;20028;-86
2023/12/25 03:26:27;;;;;;;5.40;3.33;;;0.90;99.90;;;;;;5101294;28;20031;-85
2023/12/25 03:28:53;;;;;;;5.88;4.43;;;0.90;99.90;;;;;;5108446;28;20380;-85
2023/12/25 03:31:19;;;;;;;8.10;4.20;;;1.00;99.90;;;;;;5083974;28;20020;-85
2023/12/25 03:33:45;;;;;;;6.25;4.20;;;1.10;99.90;;;;;;5086500;28;20103;-86
2023/12/25 03:36:11;;;;;;;8.43;4.65;;;1.10;99.90;;;;;;5093758;28;20031;-87
2023/12/25 03:38:36;;;;;;;7.28;4.68;;;1.20;99.90;;;;;;5119539;28;20024;-86
2023/12/25 03:41:02;;;;;;;7.45;5.88;;;1.30;99.90;;;;;;5121131;28;20015;-87
2023/12/25 03:43:28;;;;;;;8.20;4.90;;;1.30;99.90;;;;;;5081882;28;20031;-86
2023/12/25 03:45:54;;;;;;;7.18;4.68;;;1.30;99.90;;;;;;5127651;28;20045;-87
2023/12/25 03:48:21;;;;;;;6.72;4.70;;;1.30;99.90;;;;;;5091521;28;20059;-87
2023/12/25 03:50:47;;;;;;;7.80;4.20;;;1.30;99.90;;;;;;5099354;28;20494;-86
2023/12/25 03:53:12;;;;;;;6.20;4.63;;;1.30;99.90;;;;;;5120907;28;20059;-86
2023/12/25 03:55:38;;;;;;;6.18;4.30;;;1.30;99.80;;;;;;5120985;28;20451;-85
2023/12/25 03:58:04;;;;;;;4.97;3.88;;;1.20;99.80;;;;;;5106670;28;20023;-85
2023/12/25 04:00:30;;;;;;;6.60;3.85;;;1.20;99.80;;;;;;5087130;28;20036;-86
2023/12/25 04:02:56;;;;;;;5.47;3.80;;;1.10;99.90;;;;;;5113324;28;20020;-86
2023/12/25 04:05:23;;;;;;;4.63;3.25;;;1.10;99.90;;;;;;5107138;28;20034;-86
2023/12/25 04:07:50;;;;;;;4.93;3.47;;;1.00;99.90;;;;;;5098877;28;20063;-84
2023/12/25 04:10:16;;;;;;;5.57;3.78;;;1.00;99.90;;;;;;5098183;28;20031;-85
2023/12/25 04:12:42;;;;;;;4.68;3.50;;;1.00;99.90;;;;;;5089587;28;20076;-86
2023/12/25 04:15:09;;;;;;;6.38;3.85;;;1.00;99.90;;;;;;5104267;28;20020;-86
2023/12/25 04:17:35;;;;;;;4.75;3.15;;;1.00;99.90;;;;;;5098987;28;20024;-87
2023/12/25 04:20:01;;;;;;;6.80;3.92;;;1.00;99.90;;;;;;5106639;28;20588;-86
2023/12/25 04:22:27;;;;;;;5.10;3.80;;;0.90;99.90;;;;;;5112182;28;20028;-87
2023/12/25 04:24:52;;;;;;;6.10;4.00;;;0.90;99.90;;;;;;5097594;28;20465;-85
2023/12/25 04:27:19;;;;;;;5.35;3.83;;;0.90;99.90;;;;;;5097992;28;20036;-86
2023/12/25 04:29:45;;;;;;;6.07;3.85;;;0.90;99.90;;;;;;5081909;28;20020;-85
2023/12/25 04:32:11;;;;;;;8.27;4.40;;;0.90;99.90;;;;;;5081851;28;20035;-85
2023/12/25 04:34:38;;;;;;;5.13;3.53;;;0.90;99.90;;;;;;5121797;28;20016;-87
2023/12/25 04:37:04;;;;;;;6.30;3.78;;;1.00;99.90;;;;;;5097505;28;20027;-87
2023/12/25 04:39:30;;;;;;;5.32;4.18;;;0.90;99.90;;;;;;5103016;28;20032;-87
2023/12/25 04:41:55;;;;;;;6.05;3.80;;;1.00;99.90;;;;;;5087185;28;20073;-87
2023/12/25 04:44:21;;;;;;;5.35;3.53;;;1.00;99.90;;;;;;5085887;28;20056;-87
2023/12/25 04:46:47;;;;;;;4.82;3.67;;;1.00;99.90;;;;;;5095874;28;20068;-84
2023/12/25 04:49:16;;;;;;;6.10;4.10;;;0.90;99.90;;;;;;5096274;28;20065;-86
2023/12/25 04:51:42;;;;;;;7.03;4.88;;;1.00;99.90;;;;;;5089812;28;20388;-85
2023/12/25 04:54:08;;;;;;;6.97;4.28;;;1.00;99.90;;;;;;5098846;28;20024;-86
2023/12/25 04:56:34;;;;;;;8.75;4.78;;;1.00;99.90;;;;;;5100486;28;20020;-85
2023/12/25 04:59:00;;;;;;;6.22;5.00;;;1.00;99.90;;;;;;5115742;28;20024;-87
2023/12/25 05:01:26;;;;;;;5.43;4.15;;;1.00;99.90;;;;;;5100822;28;20034;-87
2023/12/25 05:03:51;;;;;;;6.80;4.35;;;1.00;99.90;;;;;;5108427;28;20111;-87
2023/12/25 05:06:17;;;;;;;6.35;3.60;;;1.00;99.90;;;;;;5080699;28;20059;-87
2023/12/25 05:08:43;;;;;;;6.53;4.20;;;1.00;99.90;;;;;;5102507;28;20082;-85
2023/12/25 05:11:09;;;;;;;8.70;4.30;;;1.00;99.90;;;;;;5099483;28;20020;-84
2023/12/25 05:13:35;;;;;;;6.78;4.50;;;1.00;99.90;;;;;;5115006;28;20035;-84
2023/12/25 05:16:01;;;;;;;6.20;4.60;;;0.90;99.90;;;;;;5108443;28;20653;-83
2023/12/25 05:18:27;;;;;;;6.10;4.53;;;0.90;99.90;;;;;;5109650;28;20024;-84
2023/12/25 05:20:53;;;;;;;9.00;5.10;;;0.90;99.90;;;;;;5098931;28;20066;-85
2023/12/25 05:23:19;;;;;;;4.20;3.33;;;1.00;99.90;;;;;;5116722;28;20148;-83
2023/12/25 05:25:45;;;;;;;6.80;4.28;;;0.90;99.90;;;;;;5102005;28;20024;-85
2023/12/25 05:28:10;;;;;;;5.65;4.07;;;0.90;99.90;;;;;;5108343;28;20611;-83
2023/12/25 05:30:36;;;;;;;6.97;4.93;;;0.90;99.90;;;;;;5095706;28;20095;-83
2023/12/25 05:33:03;;;;;;;5.97;4.68;;;0.90;99.90;;;;;;5095980;28;20024;-84
2023/12/25 05:35:29;;;;;;;6.30;4.10;;;0.90;99.90;;;;;;5106047;28;20058;-83
2023/12/25 05:37:55;;;;;;;6.88;4.70;;;0.90;99.90;;;;;;5119773;28;20038;-84
2023/12/25 05:40:22;;;;;;;6.17;4.20;;;0.80;99.90;;;;;;5107084;28;20084;-83
2023/12/25 05:42:48;;;;;;;5.90;4.05;;;0.90;99.90;;;;;;5095067;28;20099;-85
2023/12/25 05:45:14;;;;;;;7.15;4.20;;;0.80;99.90;;;;;;5100861;28;20492;-85
2023/12/25 05:47:40;;;;;;;6.32;3.92;;;0.80;99.90;;;;;;5097941;28;20052;-83
2023/12/25 05:50:09;;;;;;;7.57;3.95;;;0.80;99.90;;;;;;5111235;28;20045;-84
2023/12/25 05:52:35;;;;;;;6.63;4.72;;;0.80;99.90;;;;;;5120871;28;20023;-87
2023/12/25 05:55:01;;;;;;;7.05;3.85;;;0.80;99.90;;;;;;5093244;28;20023;-85
2023/12/25 05:57:28;;;;;;;5.72;3.95;;;0.80;99.90;;;;;;5093936;28;20024;-86
2023/12/25 05:59:54;;;;;;;5.70;3.70;;;0.80;99.90;;;;;;5119467;28;20008;-86
2023/12/25 06:02:20;;;;;;;13.45;5.85;;;0.80;99.90;;;;;;5116045;28;20484;-86
2023/12/25 06:04:46;;;;;;;5.03;3.33;;;0.80;99.90;;;;;;5106239;28;20020;-84
2023/12/25 06:07:12;;;;;;;8.80;6.65;;;0.90;99.90;;;;;;5115508;28;20027;-85
2023/12/25 06:09:38;;;;;;;4.88;3.70;;;0.80;99.90;;;;;;5108250;28;20102;-85
2023/12/25 06:12:04;;;;;;;6.55;3.97;;;0.80;99.90;;;;;;5102311;28;20024;-87
2023/12/25 06:14:30;;;;;;;6.55;4.40;;;0.80;99.90;;;;;;5095443;28;20044;-85
2023/12/25 06:16:56;;;;;;;5.28;4.40;;;0.80;99.90;;;;;;5124373;28;20119;-83
2023/12/25 06:19:23;;;;;;;9.10;4.20;;;0.80;99.90;;;;;;5104517;28;20016;-86
2023/12/25 06:21:49;;;;;;;4.90;3.95;;;0.80;99.90;;;;;;5109609;28;20027;-86
2023/12/25 06:24:15;;;;;;;8.55;4.85;;;0.80;99.70;;;;;;5081924;28;20032;-83
2023/12/25 06:26:41;;;;;;;6.32;3.90;;;0.80;99.70;;;;;;5107833;28;20068;-85
2023/12/25 06:29:07;;;;;;;6.05;4.20;;;0.80;99.60;;;;;;5096970;28;20028;-84
2023/12/25 06:31:33;;;;;;;4.75;3.53;;;0.80;99.60;;;;;;5096143;28;20016;-83
2023/12/25 06:33:59;;;;;;;8.70;4.43;;;0.80;99.50;;;;;;5084422;28;20024;-84
2023/12/25 06:36:24;;;;;;;6.13;3.30;;;0.80;99.30;;;;;;5084465;28;20020;-83
2023/12/25 06:38:50;;;;;;;4.97;3.85;;;0.70;99.20;;;;;;5094685;28;20016;-83
2023/12/25 06:41:16;;;;;;;8.30;4.30;;;0.60;99.20;;;;;;5085844;28;20076;-82
2023/12/25 06:43:45;;;;;;;5.50;3.75;;;0.70;99.30;;;;;;5102080;28;20043;-84
2023/12/25 06:46:12;;;;;;;5.75;3.47;;;0.60;99.20;;;;;;5114114;28;20034;-84
2023/12/25 06:48:37;;;;;;;8.77;4.43;;;0.60;99.00;;;;;;5101406;28;20062;-85
2023/12/25 06:51:03;;;;;;;5.90;3.90;;;0.50;99.10;;;;;;5095431;28;20028;-82
2023/12/25 06:53:29;;;;;;;6.00;3.83;;;0.60;99.20;;;;;;5085448;28;20024;-85
2023/12/25 06:55:55;;;;;;;5.47;3.78;;;0.60;99.10;;;;;;5095053;28;20477;-84
2023/12/25 06:58:21;;;;;;;5.55;3.47;;;0.50;99.00;;;;;;5097664;28;20116;-84
2023/12/25 07:00:46;;;;;;;5.00;2.58;;;0.50;99.30;;;;;;5092102;28;20020;-83
2023/12/25 07:03:12;;;;;;;4.45;2.95;;;0.50;98.90;;;;;;5095775;28;20023;-84
2023/12/25 07:05:39;;;;;;;6.32;3.10;;;0.50;98.90;;;;;;5107275;28;20044;-83
2023/12/25 07:08:06;;;;;;;5.32;3.65;;;0.50;99.00;;;;;;5108561;28;20035;-81
2023/12/25 07:10:32;;;;;;;6.82;3.75;;;0.60;99.10;;;;;;5112285;28;20020;-83
2023/12/25 07:12:57;;;;;;;4.97;3.08;;;0.70;99.10;;;;;;5110699;28;20028;-84
2023/12/25 07:15:23;;;;;;;5.72;3.08;;;0.70;98.80;;;;;;5087312;28;20020;-82
2023/12/25 07:17:49;;;;;;;9.20;4.85;;;0.60;98.80;;;;;;5081968;28;20031;-83
2023/12/25 07:20:15;;;;;;;8.65;4.70;;;0.60;98.90;;;;;;5105975;28;20100;-85
2023/12/25 07:22:41;;;;;;;6.25;4.63;;;0.70;99.00;;;;;;5081602;28;20454;-84
2023/12/25 07:25:07;;;;;;;6.10;4.07;;;0.60;99.10;;;;;;5104104;28;20031;-85
2023/12/25 07:27:34;;;;;;;7.72;5.20;;;0.60;99.20;;;;;;5117250;28;20067;-84
2023/12/25 07:30:00;;;;;;;6.05;4.22;;;0.60;99.30;;;;;;5082429;28;20473;-84
2023/12/25 07:32:28;;;;;;;10.10;5.95;;;0.60;99.40;;;;;;5098383;28;20036;-82
2023/12/25 07:34:53;;;;;;;6.60;5.13;;;0.60;99.50;;;;;;5101913;28;20008;-86
2023/12/25 07:37:19;;;;;;;8.20;4.78;;;0.70;99.40;;;;;;5108831;28;20027;-84
2023/12/25 07:39:45;;;;;;;7.30;5.20;;;0.60;99.30;;;;;;5099782;28;20431;-86
2023/12/25 07:42:11;;;;;;;6.47;4.50;;;0.60;99.60;;;;;;5076930;28;20035;-85
2023/12/25 07:44:40;;;;;;;8.80;4.03;;;0.50;99.60;;;;;;5083786;28;20051;-81
2023/12/25 07:47:06;;;;;;;8.65;6.18;;;0.60;99.80;;;;;;5092017;28;20106;-85
2023/12/25 07:49:32;;;;;;;8.23;5.22;;;0.60;99.80;;;;;;5075127;28;20374;-85
2023/12/25 07:51:58;;;;;;;7.82;5.18;;;0.60;99.80;;;;;;5087055;28;20054;-86
2023/12/25 07:54:23;;;;;;;9.20;5.22;;;0.60;99.90;;;;;;5073721;28;20025;-84
2023/12/25 07:56:49;;;;;;;7.80;5.20;;;0.60;99.90;;;;;;5089853;28;20024;-85
2023/12/25 07:59:20;;;;;;;7.85;5.72;;;0.70;99.90;;;;;;5092766;28;20021;-83
2023/12/25 08:01:46;;;;;;;11.90;6.85;;;0.60;99.90;;;;;;5085333;28;20032;-85
2023/12/25 08:04:12;;;;;;;9.20;5.80;;;0.60;99.90;;;;;;5092500;28;20024;-85
2023/12/25 08:06:37;;;;;;;5.78;4.13;;;0.60;99.90;;;;;;5092907;28;20423;-86
2023/12/25 08:09:03;;;;;;;6.68;4.88;;;0.60;99.90;;;;;;5088332;28;20495;-86
2023/12/25 08:11:30;;;;;;;9.88;5.43;;;0.60;99.90;;;;;;5084215;28;20115;-87
2023/12/25 08:13:56;;;;;;;10.18;6.03;;;0.60;99.90;;;;;;5101914;28;20082;-85
2023/12/25 08:16:22;;;;;;;9.00;5.32;;;0.60;99.90;;;;;;5088455;28;20027;-84
2023/12/25 08:18:48;;;;;;;8.50;6.78;;;0.50;99.90;;;;;;5084833;28;20541;-84
2023/12/25 08:21:14;;;;;;;9.23;5.60;;;0.50;99.90;;;;;;5081302;28;20016;-83
2023/12/25 08:23:43;;;;;;;9.13;5.60;;;0.60;99.90;;;;;;5087181;28;20095;-85
2023/12/25 08:26:08;;;;;;;9.68;6.72;;;0.60;99.90;;;;;;5087744;28;20021;-85
2023/12/25 08:28:37;;;;;;;9.70;6.75;;;0.70;99.90;;;;;;5080776;28;20094;-85
2023/12/25 08:31:04;;;;;;;10.98;6.07;;;0.80;99.90;;;;;;5096827;28;20016;-82
2023/12/25 08:33:29;;;;;;;7.80;5.85;;;0.90;99.90;;;;;;5110603;28;20014;-83
2023/12/25 08:35:55;;;;;;;8.77;5.22;;;1.00;99.90;;;;;;5103399;28;20047;-83
2023/12/25 08:38:21;;;;;;;11.48;6.43;;;1.00;99.60;;;;;;5099577;28;20115;-83
2023/12/25 08:40:47;;;;;;;7.57;6.30;;;1.00;99.40;;;;;;5090730;28;20066;-83
2023/12/25 08:43:13;;;;;;;7.97;5.15;;;1.10;99.30;;;;;;5099172;28;20054;-84
2023/12/25 08:45:39;;;;;;;7.95;4.68;;;1.10;98.90;;;;;;5112438;28;20031;-83
2023/12/25 08:48:05;;;;;;;7.75;4.43;;;1.10;98.60;;;;;;5096906;28;20028;-84
2023/12/25 08:50:30;;;;;;;8.43;5.47;;;1.00;98.20;;;;;;5080513;28;20016;-83
2023/12/25 08:52:56;;;;;;;7.18;5.40;;;0.90;98.10;;;;;;5098548;28;20131;-83
2023/12/25 08:55:22;;;;;;;9.68;5.15;;;1.00;98.20;;;;;;5111999;28;20024;-85
2023/12/25 08:57:48;;;;;;;7.45;5.30;;;1.10;98.20;;;;;;5096144;28;20031;-82
2023/12/25 09:00:14;;;;;;;6.90;4.45;;;1.10;98.10;;;;;;5110606;28;20020;-83
2023/12/25 09:02:40;;;;;;;8.02;5.00;;;1.10;97.70;;;;;;5097730;28;20095;-83
2023/12/25 09:05:06;;;;;;;9.07;6.28;;;1.10;97.50;;;;;;5097133;28;20108;-84
2023/12/25 09:07:32;;;;;;;12.35;6.25;;;1.10;97.60;;;;;;5096448;28;20412;-82
2023/12/25 09:09:58;;;;;;;7.80;4.07;;;1.10;97.30;;;;;;5106538;28;20024;-83
2023/12/25 09:12:24;;;;;;;10.55;4.22;;;1.10;97.20;;;;;;5096687;28;20020;-83
2023/12/25 09:14:50;;;;;;;7.95;4.45;;;1.10;97.00;;;;;;5098785;28;20023;-83
2023/12/25 09:17:16;;;;;;;5.82;4.32;;;1.10;96.80;;;;;;5102988;28;20020;-82
2023/12/25 09:19:42;;;;;;;8.38;4.97;;;1.10;96.80;;;;;;5096832;28;20439;-81
2023/12/25 09:22:08;;;;;;;6.18;4.07;;;1.10;96.60;;;;;;5087634;28;20439;-83
2023/12/25 09:24:34;;;;;;;7.00;4.32;;;1.00;96.80;;;;;;5096616;28;20015;-84
2023/12/25 09:27:00;;;;;;;5.68;3.47;;;1.00;96.60;;;;;;5105796;28;20039;-84
2023/12/25 09:29:27;;;;;;;6.50;3.97;;;1.00;96.40;;;;;;5078291;28;20028;-83
2023/12/25 09:31:53;;;;;;;8.87;4.80;;;1.00;96.40;;;;;;5089453;28;20420;-83
2023/12/25 09:34:18;;;;;;;6.65;4.32;;;1.00;96.30;;;;;;5105294;28;20070;-82
2023/12/25 09:36:44;;;;;;;5.20;3.58;;;1.00;96.20;;;;;;5105196;28;20027;-83
2023/12/25 09:39:10;;;;;;;8.15;4.47;;;1.00;96.10;;;;;;5102684;28;20032;-82
2023/12/25 09:41:37;;;;;;;4.75;2.47;;;0.90;95.90;;;;;;5104057;28;20020;-82
2023/12/25 09:44:03;;;;;;;4.82;3.10;;;0.80;95.80;;;;;;5095868;28;20417;-83
2023/12/25 09:46:29;;;;;;;4.57;3.08;;;0.80;95.70;;;;;;5109023;28;20020;-84
2023/12/25 09:49:01;;;;;;;3.70;3.05;;;0.80;95.10;;;;;;5098985;28;20055;-83
2023/12/25 09:51:32;;;;;;;5.13;3.20;;;0.70;95.10;;;;;;5062890;28;20073;-84
2023/12/25 09:53:58;;;;;;;2.80;2.50;;;0.80;95.20;;;;;;5099857;28;20024;-83
2023/12/25 09:56:26;;;;;;;8.45;3.72;;;0.80;95.00;;;;;;5101258;28;20020;-82
2023/12/25 09:58:54;;;;;;;8.25;5.05;;;0.90;94.90;;;;;;5089713;28;20020;-84
2023/12/25 10:01:21;;;;;;;7.50;3.45;;;0.90;95.00;;;;;;5095414;28;20035;-82
2023/12/25 10:03:47;;;;;;;7.40;4.03;;;1.00;94.90;;;;;;5110092;28;20023;-83
2023/12/25 10:06:13;;;;;;;6.75;4.07;;;1.00;94.70;;;;;;5104685;28;20062;-84
2023/12/25 10:08:42;;;;;;;5.10;2.70;;;1.10;94.60;;;;;;5111915;28;20094;-84
2023/12/25 10:11:13;;;;;;;4.93;2.92;;;1.20;94.40;;;;;;5101046;28;20015;-82
2023/12/25 10:13:43;;;;;;;2.85;2.35;;;1.10;94.30;;;;;;5101072;28;20035;-84
2023/12/25 10:16:09;;;;;;;9.90;5.07;;;1.20;94.10;;;;;;5114325;28;20028;-83
2023/12/25 10:18:38;;;;;;;9.68;5.18;;;1.20;94.10;;;;;;5114032;28;20019;-85
2023/12/25 10:21:04;;;;;;;6.10;4.28;;;1.20;94.10;;;;;;5103561;28;20016;-84
2023/12/25 10:23:34;;;;;;;6.47;3.80;;;1.30;94.10;;;;;;5104655;28;20017;-84
2023/12/25 10:26:05;;;;;;;4.43;3.15;;;1.30;94.00;;;;;;5089054;28;20016;-85
2023/12/25 10:28:33;;;;;;;7.65;4.28;;;1.40;93.80;;;;;;5116854;28;20032;-85
2023/12/25 10:31:04;;;;;;;4.53;2.78;;;1.30;93.60;;;;;;5101024;28;20027;-84
2023/12/25 10:33:31;;;;;;;5.45;3.40;;;1.30;93.50;;;;;;5106775;28;20075;-80
2023/12/25 10:36:04;;;;;;;5.77;3.60;;;1.30;93.50;;;;;;5113784;28;20036;-80
2023/12/25 10:38:42;;;;;;;5.03;3.47;;;1.30;93.40;;;;;;5114035;28;20256;-80
2023/12/25 10:41:35;;;;;;;7.72;3.55;;;1.20;93.10;;;;;;5085317;28;20077;-83
2023/12/25 10:44:03;;;;;;;3.90;2.42;;;1.10;93.20;;;;;;5105883;28;20587;-81
2023/12/25 10:46:37;;;;;;;9.45;3.95;;;1.00;93.20;;;;;;5095733;28;20467;-85
2023/12/25 10:49:06;;;;;;;5.65;2.92;;;1.00;93.30;;;;;;5103281;28;20024;-83
2023/12/25 10:51:33;;;;;;;3.65;2.17;;;1.10;93.10;;;;;;5097069;28;20059;-86
2023/12/25 10:54:01;;;;;;;4.13;2.42;;;0.90;92.60;;;;;;5103775;28;20020;-83
2023/12/25 10:56:30;;;;;;;3.85;2.20;;;0.80;92.60;;;;;;5100790;28;20393;-82
2023/12/25 10:59:02;;;;;;;5.72;3.00;;;0.70;92.60;;;;;;5088842;28;20107;-81
2023/12/25 11:01:30;;;;;;;3.72;2.42;;;0.70;92.90;;;;;;5093354;28;20107;-83
2023/12/25 11:03:56;;;;;;;;;;;0.60;93.00;;;;;;5092303;28;20047;-83
2023/12/25 11:06:22;;;;;;;4.43;2.67;;;0.70;93.00;;;;;;5090032;28;20489;-85
2023/12/25 11:08:48;;;;;;;4.82;3.33;;;0.60;93.10;;;;;;5098523;28;20055;-81
2023/12/25 11:11:15;;;;;;;3.10;2.30;;;0.50;93.40;;;;;;5104970;28;20031;-89
2023/12/25 11:13:42;;;;;;;5.57;3.50;;;0.40;93.40;;;;;;5097998;28;20019;-90
2023/12/25 11:16:08;;;;;;;7.45;2.45;;;0.50;93.70;;;;;;5100529;28;20485;-83
2023/12/25 11:18:37;;;;;;;4.55;2.90;;;0.50;93.80;;;;;;5107327;28;20027;-84
2023/12/25 11:21:05;;;;;;;4.03;2.97;;;0.50;93.80;;;;;;5094005;28;20130;-84
2023/12/25 11:23:35;;;;;;;6.60;2.97;;;0.60;93.90;;;;;;5103658;28;20027;-85
2023/12/25 11:26:05;;;;;;;4.32;2.13;;;0.70;93.90;;;;;;5096675;28;20024;-86
2023/12/25 11:28:34;;;;;;;2.60;2.40;;;0.70;93.10;;;;;;5094832;28;20031;-85
2023/12/25 11:31:00;;;;;;;8.65;3.90;;;0.60;93.00;;;;;;5095389;28;20026;-84
2023/12/25 11:33:27;;;;;;;8.63;4.18;;;0.60;93.30;;;;;;5098953;28;20103;-81
2023/12/25 11:35:53;;;;;;;7.63;3.63;;;0.60;93.40;;;;;;5106413;28;20016;-80
2023/12/25 11:38:24;;;;;;;6.18;3.08;;;0.60;93.40;;;;;;5110367;28;20098;-77
2023/12/25 11:40:50;;;;;;;2.22;1.80;;;0.70;93.60;;;;;;5092734;28;20017;-79
2023/12/25 11:43:20;;;;;;;3.50;2.35;;;0.70;93.50;;;;;;5095374;28;20032;-82
2023/12/25 11:45:50;;;;;;;3.35;2.28;;;0.50;93.10;;;;;;5074569;28;20047;-81
2023/12/25 11:48:16;;;;;;;4.70;2.00;;;0.40;93.00;;;;;;5086309;28;20039;-82
2023/12/25 11:50:44;;;;;;;4.68;2.50;;;0.30;93.20;;;;;;5086784;28;20044;-83
2023/12/25 11:53:10;;;;;;;3.77;2.67;;;0.30;93.40;;;;;;5083446;28;20031;-82
2023/12/25 11:55:36;;;;;;;6.95;3.80;;;0.40;93.20;;;;;;5078468;28;20688;-81
2023/12/25 11:58:02;;;;;;;8.60;3.13;;;0.40;93.20;;;;;;5070889;28;20507;-83
2023/12/25 12:00:31;;;;;;;3.63;2.35;;;0.40;93.10;;;;;;5077285;28;20024;-85
2023/12/25 12:02:57;;;;;;;4.80;2.63;;;0.40;92.70;;;;;;5078704;28;20048;-86
2023/12/25 12:05:24;;;;;;;5.15;2.90;;;0.40;92.60;;;;;;5076532;28;20039;-87
2023/12/25 12:07:50;;;;;;;4.28;1.98;;;0.40;92.40;;;;;;5075500;28;20127;-83
2023/12/25 12:10:16;;;;;;;1.55;1.08;;;0.40;92.10;;;;;;5067796;28;20789;-82
2023/12/25 12:12:42;;;;;;;3.92;2.83;;;0.40;91.60;;;;;;5084791;28;20115;-84
2023/12/25 12:15:08;;;;;;;3.42;2.20;;;0.40;91.50;;;;;;5089892;28;20039;-84
2023/12/25 12:17:42;;;;;;;6.60;3.58;;;0.40;91.60;;;;;;5079383;28;20036;-85
2023/12/25 12:20:09;;;;;;;2.45;1.77;;;0.40;91.60;;;;;;5083204;28;20020;-85
2023/12/25 12:22:35;;;;;;;3.30;2.47;;;0.50;91.10;;;;;;5071535;28;20108;-84
2023/12/25 12:25:18;;;;;;;3.67;2.13;;;0.40;91.30;;;;;;5072051;28;20052;-83
2023/12/25 12:27:44;;;;;;;3.63;2.42;;;0.40;91.30;;;;;;5079386;28;20061;-82
2023/12/25 12:30:10;;;;;;;3.97;1.38;;;0.40;91.40;;;;;;5076876;28;20029;-82
2023/12/25 12:32:37;;;;;;;3.58;2.65;;;0.40;90.90;;;;;;5073969;28;20543;-84
2023/12/25 12:35:10;;;;;;;2.20;1.50;;;0.30;91.10;;;;;;5074266;28;20020;-83
2023/12/25 12:37:36;;;;;;;5.32;2.95;;;0.40;91.30;;;;;;5081682;28;20028;-83
2023/12/25 12:40:03;;;;;;;4.88;2.03;;;0.30;91.20;;;;;;5091082;28;20522;-84
2023/12/25 12:42:35;;;;;;;2.45;1.95;;;0.30;91.20;;;;;;5092221;28;20046;-85
2023/12/25 12:45:05;;;;;;;3.92;1.75;;;0.40;91.20;;;;;;5093393;28;20044;-82
2023/12/25 12:47:32;;;;;;;3.70;1.90;;;0.30;91.20;;;;;;5074697;28;20043;-83
2023/12/25 12:49:58;;;;;;;3.05;2.15;;;0.20;91.20;;;;;;5094242;28;20012;-82
2023/12/25 12:52:25;;;;;;;2.15;1.80;;;0.30;91.50;;;;;;5108738;28;20121;-83
2023/12/25 12:54:51;;;;;;;3.42;1.40;;;0.30;91.50;;;;;;5102883;28;20035;-83